Aeroporto :
LOGIN :

Iscrizione | Disclaimer

   EN    FR    IT 

 










Sommario :    VFR   VFR Marginale   IFR   IFR Intensivo   IFR Molto Intensivo
Visibilità : 
Base nubi : 
>= 8 km
>= 3000ft
5 / 8 km
1000 / 3000 ft
1500m / 5 km
500 / 1000 ft
800 / 1500m
200 / 500 ft
< 800m
< 200 ft
Simboli :   Temporali  Nebbia  Neve Forte  Precipitazioni Forti  Vento > 20 kt
SIGMETs :   Varie  Temporali  Ghiacco  Turbolenza  Onda orograficha  Ceneri Vulcaniche






- Altitudine del aeroporto : 202 ft
- Codice IATA : LGW


EGKK - London Gatwick

ULTIMO METAR :
  • 041450Z 05007KT 010V090 9999 BKN020 05/02 Q1015

METARs OBSOLETI :
  • 041420Z 06005G15KT 360V110 9999 BKN020 05/02 Q1015
  • 041350Z 06005KT 020V090 9999 BKN021 05/02 Q1015
  • 041320Z 07006KT 9999 BKN022 05/02 Q1015
  • 041250Z 06008KT 010V090 9999 BKN021 05/02 Q1015
  • 041220Z 06008KT 9999 BKN022 05/02 Q1015

TAF TAF EGKK
Valido dal 04 a 12 ore il 05 a 18 ore UTC


041056Z 0412/0518 06009KT 9999 SCT020
PROB30
TEMPO 0412/0417 BKN014
BECMG 0417/0420 BKN012
TEMPO 0420/0510 6000 -RADZ BKN006
BECMG 0509/0512 SCT016
TEMPO 0512/0518 BKN012



MetMap, La meteo Aeronautica in un colpo d'occhio ! - Copyright ORBIFLY Dicembre 2007 - Disclaimer

ORBIFLY MET'MAP TEAM :

Programmazione e sviluppo : Alexandra Zaïnal
Concezione : Baudouin d'Aumeries
Supporto tecnico e logistico : Manuel Goepfert
Aiuto : Marc-Olivier Méhu
Aiuto per la traduzione : Arnaldo La Scala




FONTI E CREDITI :

   NOAA